createdAt,value
2022-08-19T00:00:21.563Z,50.21
2022-08-19T00:01:30.449Z,50.25
2022-08-19T00:02:32.400Z,50.22
2022-08-19T00:03:34.698Z,50.26
2022-08-19T00:04:37.826Z,50.28
2022-08-19T00:05:39.674Z,50.32
2022-08-19T00:06:43.081Z,50.44
2022-08-19T00:07:44.829Z,50.54
2022-08-19T00:08:46.506Z,50.82
2022-08-19T00:09:48.175Z,50.99
2022-08-19T00:10:49.902Z,50.81
2022-08-19T00:11:52.201Z,50.77
2022-08-19T00:12:53.923Z,50.87
2022-08-19T00:13:56.410Z,50.81
2022-08-19T00:14:58.210Z,50.91
2022-08-19T00:16:01.627Z,50.74
2022-08-19T00:17:04.050Z,50.79
2022-08-19T00:18:05.687Z,50.73
2022-08-19T00:19:07.768Z,50.79
2022-08-19T00:20:11.791Z,50.75
2022-08-19T00:21:13.451Z,50.80
2022-08-19T00:22:15.686Z,50.83
2022-08-19T00:23:17.387Z,50.82
2022-08-19T00:24:19.973Z,50.87
2022-08-19T00:25:29.953Z,50.84
2022-08-19T00:26:32.335Z,50.80
2022-08-19T00:27:33.992Z,50.86
2022-08-19T00:28:36.846Z,50.85
2022-08-19T00:29:39.037Z,50.79
2022-08-19T00:30:41.578Z,50.82
2022-08-19T00:31:44.130Z,50.84
2022-08-19T00:32:45.752Z,50.83
2022-08-19T00:33:47.445Z,50.88
2022-08-19T00:34:49.062Z,50.84
2022-08-19T00:35:56.060Z,50.80
2022-08-19T00:36:58.318Z,50.90
2022-08-19T00:38:00.476Z,50.85
2022-08-19T00:39:02.190Z,50.85
2022-08-19T00:40:05.279Z,50.84
2022-08-19T00:41:07.124Z,50.78
2022-08-19T00:42:08.721Z,50.86
2022-08-19T00:43:11.440Z,50.93
2022-08-19T00:44:26.854Z,50.86
2022-08-19T00:45:31.681Z,50.91
2022-08-19T00:46:36.647Z,51.02
2022-08-19T00:47:38.275Z,51.03
2022-08-19T00:48:39.903Z,51.09
2022-08-19T00:49:47.032Z,51.00
2022-08-19T00:50:51.741Z,51.08
2022-08-19T00:51:56.913Z,51.03
2022-08-19T00:53:00.862Z,51.01
2022-08-19T00:54:02.455Z,50.99
2022-08-19T00:55:05.187Z,51.04
2022-08-19T00:56:07.393Z,51.08
2022-08-19T00:57:10.829Z,51.12
2022-08-19T00:58:14.286Z,51.22
2022-08-19T00:59:16.292Z,51.19
2022-08-19T01:00:38.463Z,51.19
2022-08-19T01:01:41.761Z,51.30
2022-08-19T01:02:43.778Z,51.19
2022-08-19T01:03:57.615Z,51.29
2022-08-19T01:05:01.506Z,51.42
2022-08-19T01:06:03.489Z,51.21
2022-08-19T01:07:05.173Z,51.29
2022-08-19T01:08:07.003Z,51.28
2022-08-19T01:09:08.861Z,51.31
2022-08-19T01:10:13.115Z,51.25
2022-08-19T01:11:14.722Z,51.27
2022-08-19T01:12:16.461Z,51.28
2022-08-19T01:13:20.052Z,51.24
2022-08-19T01:14:21.666Z,51.16
2022-08-19T01:15:25.831Z,51.21
2022-08-19T01:16:28.184Z,51.18
2022-08-19T01:17:29.814Z,51.25
2022-08-19T01:18:31.853Z,51.12
2022-08-19T01:19:44.066Z,51.14
2022-08-19T01:20:46.406Z,51.13
2022-08-19T01:22:00.933Z,51.22
2022-08-19T01:23:16.147Z,51.20
2022-08-19T01:24:17.795Z,51.20
2022-08-19T01:25:22.757Z,51.56
2022-08-19T01:26:27.075Z,51.47
2022-08-19T01:27:43.166Z,51.31
2022-08-19T01:28:46.277Z,51.44
2022-08-19T01:29:48.912Z,51.47
2022-08-19T01:30:51.103Z,51.50
2022-08-19T01:31:53.224Z,51.49
2022-08-19T01:32:55.181Z,51.51
2022-08-19T01:33:57.583Z,51.56
2022-08-19T01:34:59.476Z,51.57
2022-08-19T01:36:11.816Z,51.54
2022-08-19T01:37:13.586Z,51.56
2022-08-19T01:38:27.362Z,51.50
2022-08-19T01:39:29.442Z,51.64
2022-08-19T01:40:32.441Z,51.52
2022-08-19T01:41:34.313Z,51.36
2022-08-19T01:42:36.278Z,51.35
2022-08-19T01:43:38.107Z,51.25
2022-08-19T01:44:59.763Z,51.26
2022-08-19T01:46:01.679Z,51.26
2022-08-19T01:47:03.518Z,51.22
2022-08-19T01:48:05.239Z,51.17
2022-08-19T01:49:07.266Z,51.11
2022-08-19T01:50:09.786Z,51.07
2022-08-19T01:51:11.500Z,51.17
2022-08-19T01:52:13.111Z,51.06
2022-08-19T01:53:14.793Z,51.18
2022-08-19T01:54:23.299Z,51.13
2022-08-19T01:55:29.843Z,51.15
2022-08-19T01:56:31.460Z,51.16
2022-08-19T01:57:33.080Z,51.06
2022-08-19T01:58:50.497Z,51.12
2022-08-19T01:59:52.724Z,51.13
2022-08-19T02:00:54.363Z,51.22
2022-08-19T02:01:56.239Z,51.04
2022-08-19T02:02:57.934Z,51.11
2022-08-19T02:04:01.777Z,51.00
2022-08-19T02:05:04.128Z,51.11
2022-08-19T02:06:06.349Z,50.98
2022-08-19T02:07:09.159Z,50.93
2022-08-19T02:08:11.608Z,50.90
2022-08-19T02:09:13.350Z,50.93
2022-08-19T02:10:18.236Z,50.93
2022-08-19T02:11:27.424Z,50.99
2022-08-19T02:12:29.196Z,50.97
2022-08-19T02:13:30.858Z,51.02
2022-08-19T02:14:32.484Z,51.03
2022-08-19T02:15:34.174Z,51.02
2022-08-19T02:16:36.991Z,51.04
2022-08-19T02:17:38.808Z,51.11
2022-08-19T02:18:40.446Z,51.12
2022-08-19T02:19:42.173Z,51.10
2022-08-19T02:20:44.293Z,51.11
2022-08-19T02:21:45.901Z,51.09
2022-08-19T02:22:47.637Z,51.19
2022-08-19T02:23:49.642Z,51.33
2022-08-19T02:24:51.305Z,51.02
2022-08-19T02:25:52.929Z,51.24
2022-08-19T02:26:54.746Z,51.14
2022-08-19T02:27:56.393Z,51.26
2022-08-19T02:28:58.061Z,51.09
2022-08-19T02:29:59.931Z,51.05
2022-08-19T02:31:01.821Z,50.99
2022-08-19T02:32:03.676Z,50.97
2022-08-19T02:33:05.943Z,50.95
2022-08-19T02:34:07.563Z,50.90
2022-08-19T02:35:12.416Z,50.78
2022-08-19T02:36:15.975Z,50.85
2022-08-19T02:37:36.198Z,50.79
2022-08-19T02:38:38.264Z,50.71
2022-08-19T02:39:39.908Z,50.81
2022-08-19T02:40:41.606Z,50.67
2022-08-19T02:41:43.303Z,50.74
2022-08-19T02:42:46.277Z,50.70
2022-08-19T02:44:18.398Z,50.65
2022-08-19T02:45:10.348Z,50.68
2022-08-19T02:46:32.862Z,50.66
2022-08-19T02:47:34.934Z,50.88
2022-08-19T02:48:36.540Z,50.67
2022-08-19T02:49:38.160Z,50.59
2022-08-19T02:50:40.384Z,50.63
2022-08-19T02:51:53.671Z,50.60
2022-08-19T02:52:55.301Z,50.65
2022-08-19T02:53:57.638Z,50.73
2022-08-19T02:54:59.294Z,50.82
2022-08-19T02:56:01.018Z,50.86
2022-08-19T02:57:02.708Z,50.93
2022-08-19T02:58:04.338Z,51.04
2022-08-19T02:59:12.792Z,51.07
2022-08-19T03:00:14.951Z,51.08
2022-08-19T03:01:25.099Z,51.05
2022-08-19T03:02:26.769Z,51.11
2022-08-19T03:03:28.424Z,51.19
2022-08-19T03:04:30.684Z,51.12
2022-08-19T03:05:47.921Z,51.07
2022-08-19T03:06:54.059Z,51.04
2022-08-19T03:07:56.672Z,51.03
2022-08-19T03:08:58.378Z,51.13
2022-08-19T03:10:00.011Z,51.06
2022-08-19T03:11:01.639Z,51.08
2022-08-19T03:12:04.512Z,51.21
2022-08-19T03:13:06.112Z,51.05
2022-08-19T03:14:08.909Z,51.13
2022-08-19T03:15:10.685Z,51.22
2022-08-19T03:16:12.860Z,51.27
2022-08-19T03:17:14.569Z,51.21
2022-08-19T03:18:18.000Z,51.32
2022-08-19T03:19:20.339Z,51.29
2022-08-19T03:20:22.073Z,51.37
2022-08-19T03:21:25.715Z,51.42
2022-08-19T03:22:27.453Z,51.39
2022-08-19T03:23:29.117Z,51.34
2022-08-19T03:24:31.678Z,51.47
2022-08-19T03:25:38.516Z,51.52
2022-08-19T03:26:44.718Z,51.61
2022-08-19T03:27:49.947Z,51.63
2022-08-19T03:28:58.648Z,51.82
2022-08-19T03:30:00.670Z,51.82
2022-08-19T03:31:43.807Z,51.82
2022-08-19T03:32:33.044Z,51.92
2022-08-19T03:33:35.193Z,51.98
2022-08-19T03:34:38.519Z,52.05
2022-08-19T03:35:40.127Z,52.10
2022-08-19T03:36:42.046Z,52.12
2022-08-19T03:37:43.685Z,52.06
2022-08-19T03:38:47.410Z,52.11
2022-08-19T03:39:49.063Z,52.15
2022-08-19T03:40:50.726Z,52.35
2022-08-19T03:42:32.205Z,52.32
2022-08-19T03:43:18.795Z,52.31
2022-08-19T03:44:24.168Z,52.41
2022-08-19T03:45:25.777Z,52.49
2022-08-19T03:46:29.417Z,52.38
2022-08-19T03:47:31.534Z,52.54
2022-08-19T03:48:33.956Z,52.51
2022-08-19T03:49:36.867Z,52.59
2022-08-19T03:50:41.943Z,52.65
2022-08-19T03:51:43.774Z,52.73
2022-08-19T03:52:49.629Z,52.75
2022-08-19T03:53:51.446Z,52.79
2022-08-19T03:54:53.060Z,52.89
2022-08-19T03:55:55.265Z,52.80
2022-08-19T03:56:57.456Z,52.72
2022-08-19T03:57:59.563Z,52.76
2022-08-19T03:59:01.295Z,52.70
2022-08-19T04:00:12.886Z,53.16
2022-08-19T04:01:17.307Z,53.68
2022-08-19T04:02:18.960Z,53.82
2022-08-19T04:03:20.603Z,53.76
2022-08-19T04:04:22.705Z,53.20
2022-08-19T04:05:24.728Z,53.19
2022-08-19T04:06:31.317Z,53.16
2022-08-19T04:07:33.789Z,53.68
2022-08-19T04:08:35.419Z,53.54
2022-08-19T04:09:39.923Z,53.32
2022-08-19T04:10:43.063Z,53.22
2022-08-19T04:11:49.939Z,53.34
2022-08-19T04:12:51.677Z,53.35
2022-08-19T04:13:53.795Z,53.46
2022-08-19T04:14:55.462Z,53.73
2022-08-19T04:15:57.629Z,54.15
2022-08-19T04:17:04.539Z,53.94
2022-08-19T04:18:08.699Z,54.28
2022-08-19T04:19:10.557Z,54.14
2022-08-19T04:20:12.224Z,53.80
2022-08-19T04:21:19.011Z,53.89
2022-08-19T04:22:20.692Z,53.87
2022-08-19T04:23:22.291Z,53.72
2022-08-19T04:24:24.227Z,53.95
2022-08-19T04:25:25.874Z,53.87
2022-08-19T04:26:29.276Z,54.19
2022-08-19T04:27:32.241Z,54.42
2022-08-19T04:28:33.860Z,54.16
2022-08-19T04:29:35.637Z,53.55
2022-08-19T04:30:46.077Z,53.27
2022-08-19T04:31:47.775Z,53.28
2022-08-19T04:32:49.399Z,53.18
2022-08-19T04:33:51.237Z,53.20
2022-08-19T04:35:03.251Z,53.21
2022-08-19T04:36:21.634Z,53.14
2022-08-19T04:37:24.221Z,53.19
2022-08-19T04:38:26.076Z,53.31
2022-08-19T04:39:50.166Z,53.44
2022-08-19T04:41:10.982Z,53.30
2022-08-19T04:42:31.306Z,53.30
2022-08-19T04:43:33.071Z,53.06
2022-08-19T04:44:35.609Z,53.19
2022-08-19T04:45:43.777Z,53.17
2022-08-19T04:46:51.374Z,52.97
2022-08-19T04:47:58.995Z,53.02
2022-08-19T04:49:20.056Z,52.75
2022-08-19T04:50:23.671Z,52.57
2022-08-19T04:51:25.295Z,52.49
2022-08-19T04:52:26.904Z,52.35
2022-08-19T04:53:37.418Z,52.16
2022-08-19T04:54:40.154Z,52.25
2022-08-19T04:55:42.645Z,52.22
2022-08-19T04:56:44.855Z,52.01
2022-08-19T04:57:46.484Z,52.03
2022-08-19T04:58:49.633Z,51.71
2022-08-19T04:59:55.097Z,51.87
2022-08-19T05:00:56.761Z,51.79
2022-08-19T05:01:58.421Z,51.75
2022-08-19T05:03:00.095Z,51.63
2022-08-19T05:04:05.695Z,51.52
2022-08-19T05:05:07.882Z,51.67
2022-08-19T05:06:14.878Z,51.32
2022-08-19T05:07:16.501Z,51.31
2022-08-19T05:08:31.229Z,51.48
2022-08-19T05:09:55.746Z,51.17
2022-08-19T05:10:55.099Z,51.16
2022-08-19T05:11:56.721Z,51.36
2022-08-19T05:12:58.727Z,51.54
2022-08-19T05:14:00.415Z,51.26
2022-08-19T05:15:02.763Z,51.26
2022-08-19T05:16:04.632Z,50.72
2022-08-19T05:17:26.006Z,50.81
2022-08-19T05:18:45.937Z,50.68
2022-08-19T05:20:06.496Z,50.61
2022-08-19T05:21:28.070Z,50.46
2022-08-19T05:22:33.533Z,50.41
2022-08-19T05:23:35.192Z,50.55
2022-08-19T05:24:44.132Z,50.37
2022-08-19T05:25:53.083Z,50.22
2022-08-19T05:26:57.542Z,50.13
2022-08-19T05:27:59.432Z,50.49
2022-08-19T05:29:01.050Z,50.28
2022-08-19T05:30:02.823Z,50.11
2022-08-19T05:31:04.603Z,49.92
2022-08-19T05:32:09.834Z,49.70
2022-08-19T05:33:12.332Z,48.79
2022-08-19T05:34:18.271Z,48.52
2022-08-19T05:35:24.506Z,48.68
2022-08-19T05:36:29.553Z,48.31
2022-08-19T05:37:31.180Z,47.86
2022-08-19T05:38:32.815Z,47.76
2022-08-19T05:39:36.348Z,47.65
2022-08-19T05:40:39.127Z,48.05
2022-08-19T05:41:48.469Z,47.46
2022-08-19T05:42:55.059Z,46.99
2022-08-19T05:44:01.894Z,46.75
2022-08-19T05:45:03.854Z,46.68
2022-08-19T05:46:07.173Z,45.91
2022-08-19T05:47:09.514Z,45.98
2022-08-19T05:48:12.263Z,46.04
2022-08-19T05:49:13.979Z,46.31
2022-08-19T05:50:15.746Z,46.43
2022-08-19T05:51:17.817Z,46.11
2022-08-19T05:52:25.356Z,45.71
2022-08-19T05:53:27.708Z,45.80
2022-08-19T05:54:29.409Z,46.10
2022-08-19T05:55:31.067Z,45.57
2022-08-19T05:56:32.817Z,45.49
2022-08-19T05:57:34.442Z,45.43
2022-08-19T05:58:37.356Z,45.53
2022-08-19T05:59:39.270Z,45.04
2022-08-19T06:00:41.299Z,45.30
2022-08-19T06:01:46.951Z,45.27
2022-08-19T06:02:48.662Z,45.86
2022-08-19T06:03:50.385Z,45.01
2022-08-19T06:04:52.033Z,45.51
2022-08-19T06:05:54.529Z,44.90
2022-08-19T06:06:57.389Z,44.77
2022-08-19T06:07:59.766Z,44.87
2022-08-19T06:09:05.107Z,44.81
2022-08-19T06:10:08.442Z,44.54
2022-08-19T06:11:44.529Z,45.05
2022-08-19T06:12:46.312Z,45.00
2022-08-19T06:13:51.482Z,44.21
2022-08-19T06:15:00.504Z,44.05
2022-08-19T06:16:03.813Z,44.10
2022-08-19T06:17:07.286Z,44.13
2022-08-19T06:18:09.181Z,44.04
2022-08-19T06:19:13.774Z,44.03
2022-08-19T06:20:18.754Z,44.31
2022-08-19T06:21:21.986Z,43.86
2022-08-19T06:22:23.942Z,44.09
2022-08-19T06:23:26.713Z,43.79
2022-08-19T06:24:29.070Z,43.80
2022-08-19T06:25:31.538Z,44.09
2022-08-19T06:26:35.830Z,43.82
2022-08-19T06:27:42.001Z,44.20
2022-08-19T06:28:51.125Z,43.44
2022-08-19T06:29:52.795Z,43.78
2022-08-19T06:30:54.409Z,43.44
2022-08-19T06:31:57.460Z,43.52
2022-08-19T06:32:59.091Z,43.86
2022-08-19T06:34:04.933Z,43.44
2022-08-19T06:35:07.153Z,43.26
2022-08-19T06:36:09.580Z,42.79
2022-08-19T06:37:12.034Z,42.82
2022-08-19T06:38:13.670Z,43.01
2022-08-19T06:39:21.806Z,43.15
2022-08-19T06:40:24.020Z,43.34
2022-08-19T06:41:26.792Z,43.09
2022-08-19T06:42:28.462Z,42.99
2022-08-19T06:43:30.085Z,42.90
2022-08-19T06:44:37.293Z,43.17
2022-08-19T06:45:44.587Z,43.51
2022-08-19T06:46:54.827Z,43.15
2022-08-19T06:47:57.135Z,43.52
2022-08-19T06:48:59.127Z,43.74
2022-08-19T06:50:05.471Z,43.15
2022-08-19T06:51:08.732Z,43.47
2022-08-19T06:52:13.805Z,43.44
2022-08-19T06:53:15.766Z,42.88
2022-08-19T06:54:19.554Z,43.31
2022-08-19T06:55:21.552Z,43.44
2022-08-19T06:56:26.709Z,42.88
2022-08-19T06:57:28.375Z,42.81
2022-08-19T06:58:33.634Z,42.94
2022-08-19T06:59:35.298Z,43.30
2022-08-19T07:00:37.633Z,43.05
2022-08-19T07:01:41.034Z,43.04
2022-08-19T07:02:48.144Z,42.59
2022-08-19T07:03:58.453Z,42.78
2022-08-19T07:05:04.204Z,42.74
2022-08-19T07:06:26.541Z,42.59
2022-08-19T07:07:35.718Z,42.67
2022-08-19T07:09:45.054Z,43.09
2022-08-19T07:10:57.000Z,43.01
2022-08-19T07:11:59.315Z,42.26
2022-08-19T07:13:01.407Z,42.26
2022-08-19T07:14:03.053Z,42.08
2022-08-19T07:15:06.273Z,42.14
2022-08-19T07:16:08.459Z,41.79
2022-08-19T07:17:11.883Z,41.95
2022-08-19T07:18:13.584Z,41.87
2022-08-19T07:19:18.688Z,42.25
2022-08-19T07:20:21.086Z,42.04
2022-08-19T07:21:25.365Z,42.20
2022-08-19T07:22:31.650Z,41.38
2022-08-19T07:23:33.752Z,41.28
2022-08-19T07:24:35.685Z,41.33
2022-08-19T07:25:38.045Z,41.42
2022-08-19T07:26:42.217Z,41.59
2022-08-19T07:27:46.402Z,41.57
2022-08-19T07:28:52.820Z,41.56
2022-08-19T07:29:57.406Z,41.42
2022-08-19T07:30:59.414Z,41.27
2022-08-19T07:32:01.721Z,41.20
2022-08-19T07:33:03.751Z,41.08
2022-08-19T07:34:10.052Z,39.98
2022-08-19T07:35:11.801Z,40.22
2022-08-19T07:36:14.447Z,40.36
2022-08-19T07:37:16.069Z,40.35
2022-08-19T07:38:17.821Z,39.77
2022-08-19T07:39:21.830Z,39.68
2022-08-19T07:40:23.647Z,39.12
2022-08-19T07:41:26.021Z,39.30
2022-08-19T07:42:29.334Z,39.26
2022-08-19T07:43:34.894Z,39.41
2022-08-19T07:44:37.217Z,39.74
2022-08-19T07:45:38.980Z,39.50
2022-08-19T07:46:46.546Z,39.30
2022-08-19T07:47:51.366Z,39.32
2022-08-19T07:48:53.056Z,39.33
2022-08-19T07:49:54.834Z,39.54
2022-08-19T07:50:58.009Z,39.73
2022-08-19T07:52:02.414Z,39.76
2022-08-19T07:53:04.062Z,39.73
2022-08-19T07:54:05.805Z,39.68
2022-08-19T07:55:40.177Z,39.53
2022-08-19T07:56:30.761Z,39.93
2022-08-19T07:57:32.422Z,39.36
2022-08-19T07:58:35.778Z,39.19
2022-08-19T07:59:37.680Z,38.93
2022-08-19T08:00:39.741Z,39.21
2022-08-19T08:01:41.898Z,39.15
2022-08-19T08:02:43.706Z,38.92
2022-08-19T08:04:03.793Z,38.95
2022-08-19T08:05:27.389Z,38.50
2022-08-19T08:06:47.913Z,38.59
2022-08-19T08:08:07.977Z,39.31
2022-08-19T08:09:12.726Z,38.35
2022-08-19T08:10:20.533Z,38.34
2022-08-19T08:11:24.113Z,38.64
2022-08-19T08:12:34.559Z,38.56
2022-08-19T08:13:36.674Z,38.61
2022-08-19T08:14:47.588Z,39.08
2022-08-19T08:15:49.326Z,38.43
2022-08-19T08:16:53.912Z,38.62
2022-08-19T08:17:55.654Z,38.53
2022-08-19T08:18:57.884Z,38.65
2022-08-19T08:19:59.554Z,39.03
2022-08-19T08:21:01.367Z,38.71
2022-08-19T08:22:03.640Z,38.19
2022-08-19T08:23:23.364Z,38.08
2022-08-19T08:24:28.549Z,38.54
2022-08-19T08:25:32.490Z,38.31
2022-08-19T08:26:35.953Z,37.11
2022-08-19T08:27:40.628Z,37.00
2022-08-19T08:28:42.269Z,36.65
2022-08-19T08:29:50.125Z,37.15
2022-08-19T08:30:52.009Z,37.37
2022-08-19T08:32:00.036Z,36.91
2022-08-19T08:33:02.692Z,37.08
2022-08-19T08:34:04.523Z,36.02
2022-08-19T08:35:07.653Z,36.59
2022-08-19T08:36:09.658Z,36.94
2022-08-19T08:37:11.389Z,36.58
2022-08-19T08:38:13.270Z,36.25
2022-08-19T08:39:16.237Z,35.33
2022-08-19T08:40:30.595Z,35.49
2022-08-19T08:41:50.646Z,35.62
2022-08-19T08:44:05.741Z,35.86
2022-08-19T08:45:16.865Z,36.13
2022-08-19T08:46:30.386Z,35.76
2022-08-19T08:47:35.989Z,35.89
2022-08-19T08:48:43.061Z,36.18
2022-08-19T08:50:18.286Z,36.12
2022-08-19T08:51:34.987Z,35.66
2022-08-19T08:52:43.914Z,35.57
2022-08-19T08:53:48.243Z,35.54
2022-08-19T08:54:54.962Z,35.71
2022-08-19T08:55:57.475Z,35.11
2022-08-19T08:56:59.144Z,35.12
2022-08-19T08:58:04.294Z,35.07
2022-08-19T08:59:27.295Z,34.77
2022-08-19T09:00:39.736Z,34.95
2022-08-19T09:01:41.475Z,35.22
2022-08-19T09:02:44.091Z,34.16
2022-08-19T09:03:46.456Z,34.75
2022-08-19T09:04:48.163Z,35.27
2022-08-19T09:05:58.911Z,35.50
2022-08-19T09:07:36.038Z,34.99
2022-08-19T09:09:12.142Z,34.89
2022-08-19T09:10:27.247Z,34.42
2022-08-19T09:11:49.177Z,34.54
2022-08-19T09:13:12.186Z,34.55
2022-08-19T09:14:47.418Z,33.74
2022-08-19T09:15:47.571Z,33.74
2022-08-19T09:16:50.671Z,34.03
2022-08-19T09:17:52.393Z,33.84
2022-08-19T09:18:59.848Z,34.02
2022-08-19T09:20:09.755Z,34.46
2022-08-19T09:21:11.487Z,33.88
2022-08-19T09:22:13.231Z,33.79
2022-08-19T09:23:27.300Z,33.94
2022-08-19T09:24:31.209Z,33.43
2022-08-19T09:25:35.547Z,33.64
2022-08-19T09:26:52.378Z,33.80
2022-08-19T09:27:55.321Z,34.15
2022-08-19T09:29:06.823Z,33.62
2022-08-19T09:30:09.373Z,33.91
2022-08-19T09:31:14.864Z,33.01
2022-08-19T09:32:26.301Z,33.54
2022-08-19T09:33:28.598Z,32.94
2022-08-19T09:34:33.210Z,33.50
2022-08-19T09:35:53.023Z,33.26
2022-08-19T09:36:56.268Z,33.53
2022-08-19T09:37:59.444Z,33.75
2022-08-19T09:39:01.633Z,34.08
2022-08-19T09:40:04.884Z,33.62
2022-08-19T09:41:12.519Z,33.45
2022-08-19T09:42:16.495Z,33.67
2022-08-19T09:43:32.952Z,33.23
2022-08-19T09:44:35.962Z,33.57
2022-08-19T09:45:37.682Z,33.37
2022-08-19T09:46:39.338Z,33.48
2022-08-19T09:47:41.082Z,33.32
2022-08-19T09:48:43.329Z,33.21
2022-08-19T09:49:45.007Z,32.87
2022-08-19T09:50:51.957Z,33.32
2022-08-19T09:51:57.206Z,33.14
2022-08-19T09:52:59.093Z,33.23
2022-08-19T09:54:02.346Z,33.52
2022-08-19T09:55:08.261Z,33.42
2022-08-19T09:56:09.963Z,33.23
2022-08-19T09:57:11.589Z,32.78
2022-08-19T09:58:13.208Z,32.53
2022-08-19T09:59:14.878Z,32.77
2022-08-19T10:00:16.882Z,32.83
2022-08-19T10:01:24.012Z,32.97
2022-08-19T10:02:25.952Z,32.94
2022-08-19T10:03:31.253Z,33.21
2022-08-19T10:04:51.219Z,32.47
2022-08-19T10:05:55.204Z,31.95
2022-08-19T10:06:57.659Z,31.32
2022-08-19T10:08:02.453Z,31.00
2022-08-19T10:09:09.007Z,31.86
2022-08-19T10:10:11.276Z,31.90
2022-08-19T10:11:28.747Z,31.37
2022-08-19T10:12:38.280Z,31.87
2022-08-19T10:13:39.898Z,31.42
2022-08-19T10:14:42.454Z,30.99
2022-08-19T10:15:47.548Z,31.34
2022-08-19T10:16:50.461Z,31.39
2022-08-19T10:17:54.920Z,31.31
2022-08-19T10:18:59.049Z,31.03
2022-08-19T10:20:01.130Z,30.96
2022-08-19T10:21:11.515Z,30.40
2022-08-19T10:22:14.883Z,29.88
2022-08-19T10:23:16.881Z,30.46
2022-08-19T10:24:21.130Z,30.44
2022-08-19T10:25:22.806Z,29.55
2022-08-19T10:26:31.228Z,29.75
2022-08-19T10:27:32.861Z,29.75
2022-08-19T10:28:39.042Z,29.71
2022-08-19T10:29:46.444Z,29.93
2022-08-19T10:30:48.699Z,29.78
2022-08-19T10:32:00.803Z,30.07
2022-08-19T10:33:08.293Z,30.14
2022-08-19T10:34:17.575Z,29.87
2022-08-19T10:35:30.526Z,29.47
2022-08-19T10:36:56.067Z,29.85
2022-08-19T10:38:03.377Z,29.93
2022-08-19T10:39:09.740Z,29.97
2022-08-19T10:40:12.560Z,30.14
2022-08-19T10:41:16.454Z,30.40
2022-08-19T10:42:19.593Z,30.42
2022-08-19T10:43:21.202Z,30.02
2022-08-19T10:44:24.247Z,30.71
2022-08-19T10:45:28.181Z,30.12
2022-08-19T10:46:33.489Z,30.55
2022-08-19T10:47:35.113Z,30.43
2022-08-19T10:48:36.814Z,30.24
2022-08-19T10:49:58.813Z,30.02
2022-08-19T10:51:22.522Z,29.95
2022-08-19T10:52:38.879Z,29.44
2022-08-19T10:53:40.750Z,29.10
2022-08-19T10:55:05.167Z,28.92
2022-08-19T10:56:28.570Z,29.16
2022-08-19T10:57:52.343Z,29.81
2022-08-19T10:58:54.817Z,29.73
2022-08-19T10:59:56.998Z,29.98
2022-08-19T11:00:59.415Z,29.44
2022-08-19T11:02:01.723Z,29.48
2022-08-19T11:03:03.338Z,29.23
2022-08-19T11:04:05.401Z,29.31
2022-08-19T11:05:12.664Z,29.46
2022-08-19T11:06:16.373Z,29.44
2022-08-19T11:07:18.016Z,29.34
2022-08-19T11:08:23.901Z,29.45
2022-08-19T11:09:33.609Z,29.36
2022-08-19T11:10:36.128Z,29.27
2022-08-19T11:11:41.304Z,29.40
2022-08-19T11:12:42.988Z,29.20
2022-08-19T11:13:45.517Z,29.19
2022-08-19T11:14:47.146Z,29.36
2022-08-19T11:15:48.868Z,29.53
2022-08-19T11:16:53.155Z,29.46
2022-08-19T11:17:55.916Z,29.13
2022-08-19T11:18:59.398Z,28.89
2022-08-19T11:20:04.854Z,29.02
2022-08-19T11:21:18.272Z,29.10
2022-08-19T11:22:20.514Z,29.21
2022-08-19T11:23:22.137Z,29.09
2022-08-19T11:24:25.209Z,28.81
2022-08-19T11:25:26.937Z,29.12
2022-08-19T11:26:29.053Z,29.28
2022-08-19T11:27:30.677Z,29.12
2022-08-19T11:28:32.354Z,29.38
2022-08-19T11:29:35.421Z,29.17
2022-08-19T11:30:38.685Z,28.78
2022-08-19T11:31:43.499Z,28.94
2022-08-19T11:32:49.213Z,29.12
2022-08-19T11:33:54.742Z,29.20
2022-08-19T11:34:56.941Z,29.07
2022-08-19T11:36:00.293Z,29.00
2022-08-19T11:37:02.242Z,28.61
2022-08-19T11:38:07.182Z,28.86
2022-08-19T11:39:11.537Z,28.89
2022-08-19T11:40:13.241Z,29.27
2022-08-19T11:41:15.673Z,29.10
2022-08-19T11:42:35.614Z,29.37
2022-08-19T11:43:37.841Z,29.19
2022-08-19T11:44:39.500Z,29.26
2022-08-19T11:45:41.482Z,29.23
2022-08-19T11:46:47.151Z,29.42
2022-08-19T11:47:49.305Z,29.47
2022-08-19T11:48:51.639Z,29.77
2022-08-19T11:49:54.179Z,29.44
2022-08-19T11:50:58.582Z,29.15
2022-08-19T11:52:00.252Z,29.22
2022-08-19T11:53:01.854Z,29.47
2022-08-19T11:54:03.546Z,28.98
2022-08-19T11:55:06.341Z,28.60
2022-08-19T11:56:09.128Z,28.50
2022-08-19T11:57:10.805Z,28.54
2022-08-19T11:58:19.158Z,28.32
2022-08-19T11:59:21.024Z,28.48
2022-08-19T12:00:22.644Z,28.46
2022-08-19T12:01:25.185Z,28.48
2022-08-19T12:02:26.967Z,28.09
2022-08-19T12:03:29.068Z,28.06
2022-08-19T12:04:30.779Z,28.16
2022-08-19T12:05:32.422Z,27.99
2022-08-19T12:06:39.247Z,28.00
2022-08-19T12:07:42.564Z,28.02
2022-08-19T12:08:44.584Z,27.95
2022-08-19T12:09:46.201Z,27.86
2022-08-19T12:10:50.300Z,27.73
2022-08-19T12:11:52.022Z,27.91
2022-08-19T12:12:54.675Z,28.07
2022-08-19T12:14:00.593Z,28.08
2022-08-19T12:15:03.150Z,28.39
2022-08-19T12:16:16.039Z,28.17
2022-08-19T12:17:17.672Z,28.27
2022-08-19T12:18:19.373Z,27.74
2022-08-19T12:19:22.345Z,27.66
2022-08-19T12:20:24.869Z,27.39
2022-08-19T12:21:29.396Z,27.74
2022-08-19T12:22:31.013Z,27.76
2022-08-19T12:23:32.645Z,27.21
2022-08-19T12:24:35.044Z,27.38
2022-08-19T12:25:37.533Z,27.40
2022-08-19T12:26:53.079Z,27.51
2022-08-19T12:27:57.437Z,27.77
2022-08-19T12:29:00.590Z,27.94
2022-08-19T12:30:03.675Z,28.15
2022-08-19T12:31:05.591Z,27.68
2022-08-19T12:32:07.240Z,27.75
2022-08-19T12:33:14.961Z,27.86
2022-08-19T12:34:16.806Z,28.13
2022-08-19T12:35:18.759Z,27.96
2022-08-19T12:36:20.755Z,27.71
2022-08-19T12:37:22.386Z,28.23
2022-08-19T12:38:25.331Z,28.05
2022-08-19T12:39:27.145Z,27.92
2022-08-19T12:40:28.807Z,27.92
2022-08-19T12:41:30.440Z,28.21
2022-08-19T12:42:32.082Z,28.00
2022-08-19T12:43:35.979Z,27.79
2022-08-19T12:44:38.600Z,27.92
2022-08-19T12:45:43.702Z,28.10
2022-08-19T12:46:45.661Z,28.09
2022-08-19T12:47:47.906Z,28.25
2022-08-19T12:48:54.071Z,28.14
2022-08-19T12:49:57.586Z,28.02
2022-08-19T12:50:59.219Z,28.27
2022-08-19T12:52:05.012Z,28.43
2022-08-19T12:53:06.632Z,28.47
2022-08-19T12:54:08.329Z,28.48
2022-08-19T12:55:10.177Z,28.63
2022-08-19T12:56:12.582Z,28.74
2022-08-19T12:57:14.684Z,28.84
2022-08-19T12:58:16.297Z,28.94
2022-08-19T12:59:19.101Z,28.77
2022-08-19T13:00:22.147Z,29.08
2022-08-19T13:01:23.862Z,29.18
2022-08-19T13:02:25.509Z,29.17
2022-08-19T13:03:30.336Z,29.29
2022-08-19T13:04:31.951Z,28.78
2022-08-19T13:05:34.516Z,28.85
2022-08-19T13:06:36.579Z,28.79
2022-08-19T13:07:39.692Z,29.86
2022-08-19T13:08:41.347Z,30.13
2022-08-19T13:09:45.782Z,30.03
2022-08-19T13:10:47.798Z,30.24
2022-08-19T13:11:49.489Z,30.34
2022-08-19T13:12:51.867Z,30.75
2022-08-19T13:13:54.660Z,30.69
2022-08-19T13:14:56.520Z,30.84
2022-08-19T13:16:03.153Z,30.90
2022-08-19T13:17:04.894Z,31.10
2022-08-19T13:18:07.006Z,31.43
2022-08-19T13:19:08.731Z,31.92
2022-08-19T13:20:11.425Z,32.22
2022-08-19T13:21:14.227Z,32.37
2022-08-19T13:22:15.875Z,32.88
2022-08-19T13:23:17.481Z,33.12
2022-08-19T13:24:19.260Z,33.45
2022-08-19T13:25:21.894Z,33.61
2022-08-19T13:26:23.713Z,33.83
2022-08-19T13:27:25.351Z,33.81
2022-08-19T13:28:29.322Z,34.07
2022-08-19T13:29:49.683Z,34.17
2022-08-19T13:31:09.594Z,34.26
2022-08-19T13:32:29.560Z,34.88
2022-08-19T13:33:31.590Z,34.97
2022-08-19T13:34:35.003Z,35.11
2022-08-19T13:35:36.695Z,35.50
2022-08-19T13:36:38.587Z,35.72
2022-08-19T13:37:42.796Z,36.04
2022-08-19T13:38:45.906Z,36.32
2022-08-19T13:39:48.386Z,36.14
2022-08-19T13:40:51.369Z,36.25
2022-08-19T13:41:53.009Z,36.30
2022-08-19T13:42:55.394Z,36.15
2022-08-19T13:43:57.054Z,36.38
2022-08-19T13:44:59.524Z,36.46
2022-08-19T13:46:01.564Z,36.47
2022-08-19T13:47:08.075Z,36.51
2022-08-19T13:48:09.800Z,36.67
2022-08-19T13:49:12.729Z,36.55
2022-08-19T13:50:18.643Z,36.51
2022-08-19T13:51:20.327Z,36.43
2022-08-19T13:52:22.006Z,36.75
2022-08-19T13:53:24.157Z,36.44
2022-08-19T13:54:25.878Z,36.58
2022-08-19T13:55:27.999Z,36.65
2022-08-19T13:56:29.706Z,36.41